Terminal Aerodrome Forecast
Issued by NWS

Home | Current Version | Previous Version | Text Only | Print | Product List | Glossary On
Versions: 1 2 3 4 5 6 7 8 9 10 11 12 13 14 15
322
FTUS44 KLIX 270520
TAFMSY
TAF
KMSY 270520Z 2706/2806 13007KT P6SM FEW024 BKN250
     FM271500 15010KT P6SM BKN080
     FM280500 14006KT P6SM SCT120=

USA.gov is the U.S. government's official web portal to all federal, state and local government web resources and services.